To NAV CANADA Home Page Login to a new session Search on AWWS site Feedback and Comments Disclaimer Vers la page française équivalente Tips FAQ What's new on the site To the Forecasts and Observations / NOTAM section To "File a Flight Plan" website Publications and other links Update of the User's profile FIC Telephone Numbers My Weather Data Folder Route Weather Data Regional Weather Data Local Weather Data To the Forecasts and Observations / NOTAM section
Request Generated 05/02/2016 at 19:31:24 UTC . Weather information available at that time is displayed.

METAR/TAF

NAUJAAT/NU    

LWIS CYUT 021900Z AUTO 35023KT M13/M16 A2978=
LWIS CYUT 021800Z AUTO 35022G27KT M13/M17 A2977=
LWIS CYUT 021700Z AUTO 35021G26KT M14/M17 A2975=

TAF CYUT 021838Z 0219/0222 FCST CNCLD DUE NO OBS
RMK NXT FCST WILL BE ISSUED AT 031345Z=
Your time UTC time
Weather data provided by Environment Canada and NAV CANADA